Startpagina
METAR-TAF:

METAR-TAF

Vliegvelden :

Dakar, Senegal

Luchthaven Dakar

breedte: 14-44N, lengte: 017-30W, hoogte: 27 m

Actueel weer

Dit bericht is 30 minuten geleden gemaakt, om 12:00 UTC
Wind 17 kt uit het noordnoordoosten
Temperatuur 23°C
Vochtigheid 69%
Druk 1014 hPa
Zicht 10 km of meer
geen wolken onder 1500 m en geen cumulonimbus

METAR: GOOY 271200Z 02017KT CAVOK 23/17 Q1014 NOSIG

Tijdstip: 12:30 (12:30 UTC)

Verwachting

Dit bericht is 1 uur en het 0 minuten geleden gemaakt, om 11:30 UTC
Verwachting geldig van 27 om 12 UTC tot 28 om 18 UTC
Wind 16 kt uit het noorden
Zicht 10 km of meer
geen wolken onder 1500 m en geen cumulonimbus

TAF: GOOY 271130Z 2712/2818 01016KT CAVOK

Waarnemingen en weersverwachtingen van meer dan 4000 vliegvelden (METAR en TAF).

De beschikbare stations zijn de gele en rode punten op de kaart.

Ga met uw muis naar het station om de naam te zien.

Klik dan om waarnemingen en weersverwachtingen te zien.

kaart wijzigen: klik op de groene knoppen met een zwart kruis om in te zoomen, op de groene knop met een streepje om uit te zoomen of op de groene pijlen voor aangrenzende kaarten.


METAR-TAF: